Time;durP1;ratioP1;P1;durP2;ratioP2;P2;SDS_P1;SDS_P2;PMS_P1;PMS_P2;Temp;Humidity;BMP_temperature;BMP_pressure;BME280_temperature;BME280_humidity;BME280_pressure;Samples;Min_cycle;Max_cycle;Signal;HPM_P1;HPM_P2
2022/05/23 00:00:26;;;;;;;6.88;1.63;;;14.50;99.90;;;;;;4965022;28;20058;-73
2022/05/23 00:02:52;;;;;;;5.43;1.90;;;14.50;99.90;;;;;;4970017;28;20477;-73
2022/05/23 00:05:18;;;;;;;4.25;1.75;;;14.50;99.90;;;;;;4964686;28;20053;-73
2022/05/23 00:07:48;;;;;;;5.47;2.08;;;14.50;99.90;;;;;;4963663;28;20043;-73
2022/05/23 00:10:17;;;;;;;4.35;1.65;;;14.50;99.90;;;;;;4963733;28;20047;-73
2022/05/23 00:12:43;;;;;;;7.85;1.95;;;14.40;99.90;;;;;;4967689;28;20053;-73
2022/05/23 00:15:11;;;;;;;5.20;2.03;;;14.30;99.90;;;;;;4968600;28;20039;-73
2022/05/23 00:17:37;;;;;;;6.63;2.10;;;14.30;99.90;;;;;;4960516;28;20043;-73
2022/05/23 00:20:05;;;;;;;6.07;1.75;;;14.30;99.90;;;;;;4970186;28;20050;-73
2022/05/23 00:22:31;;;;;;;5.40;1.83;;;14.20;99.90;;;;;;4974084;28;20073;-73
2022/05/23 00:24:58;;;;;;;3.88;1.70;;;14.20;99.90;;;;;;4963231;28;20039;-73
2022/05/23 00:27:24;;;;;;;3.33;1.70;;;14.10;99.90;;;;;;4968363;28;20057;-73
2022/05/23 00:29:50;;;;;;;4.75;1.90;;;14.00;99.90;;;;;;4955825;28;20082;-73
2022/05/23 00:35:19;;;;;;;5.43;1.80;;;13.90;99.90;;;;;;4970126;28;20137;-73
2022/05/23 00:37:47;;;;;;;4.22;2.00;;;13.90;99.90;;;;;;4967367;28;20042;-73
2022/05/23 00:40:31;;;;;;;4.22;1.70;;;13.90;99.90;;;;;;4968580;28;20505;-74
2022/05/23 00:43:15;;;;;;;6.38;1.90;;;13.80;99.90;;;;;;4969774;28;20034;-74
2022/05/23 00:45:46;;;;;;;4.10;1.90;;;13.80;99.90;;;;;;4966107;28;20035;-73
2022/05/23 00:48:13;;;;;;;2.88;1.77;;;13.70;99.90;;;;;;4967424;28;20034;-73
2022/05/23 00:50:43;;;;;;;6.18;1.80;;;13.70;99.90;;;;;;4970106;28;20043;-73
2022/05/23 00:53:10;;;;;;;4.38;1.70;;;13.70;99.90;;;;;;4972460;28;20057;-73
2022/05/23 00:55:48;;;;;;;7.03;1.75;;;13.70;99.90;;;;;;4967112;28;20046;-73
2022/05/23 00:58:28;;;;;;;4.53;1.90;;;13.70;99.90;;;;;;4967949;28;20680;-73
2022/05/23 01:00:58;;;;;;;3.05;1.92;;;13.70;99.90;;;;;;4954739;28;20081;-73
2022/05/23 01:03:23;;;;;;;4.70;1.88;;;13.70;99.90;;;;;;4969559;28;20425;-73
2022/05/23 01:05:51;;;;;;;5.32;1.75;;;13.70;99.90;;;;;;4966543;28;20039;-73
2022/05/23 01:08:17;;;;;;;3.90;1.77;;;13.70;99.90;;;;;;4970607;28;20121;-73
2022/05/23 01:10:44;;;;;;;7.25;2.10;;;13.70;99.90;;;;;;4968206;28;20035;-73
2022/05/23 01:13:10;;;;;;;2.88;1.80;;;13.70;99.90;;;;;;4970002;28;20106;-73
2022/05/23 01:15:36;;;;;;;3.80;1.70;;;13.70;99.90;;;;;;4966254;28;20043;-74
2022/05/23 01:18:03;;;;;;;4.35;1.80;;;13.70;99.90;;;;;;4969332;28;20035;-74
2022/05/23 01:20:29;;;;;;;4.75;1.80;;;13.70;99.90;;;;;;4953425;28;20549;-73
2022/05/23 01:23:12;;;;;;;5.43;1.90;;;13.70;99.90;;;;;;4970860;28;20162;-73
2022/05/23 01:25:41;;;;;;;4.65;2.08;;;13.70;99.90;;;;;;4965878;28;20051;-73
2022/05/23 01:28:06;;;;;;;7.20;1.80;;;13.70;99.90;;;;;;4969128;28;20508;-73
2022/05/23 01:30:34;;;;;;;3.42;1.70;;;13.60;99.90;;;;;;4953496;28;20046;-73
2022/05/23 01:33:01;;;;;;;4.65;1.80;;;13.70;99.90;;;;;;4970281;28;20118;-73
2022/05/23 01:35:27;;;;;;;4.95;1.67;;;13.60;99.90;;;;;;4967728;28;20042;-73
2022/05/23 01:37:53;;;;;;;5.50;2.08;;;13.70;99.90;;;;;;4972306;28;20559;-73
2022/05/23 01:40:19;;;;;;;4.88;1.95;;;13.70;99.90;;;;;;4968729;28;20055;-73
2022/05/23 01:42:45;;;;;;;6.80;2.00;;;13.70;99.90;;;;;;4972427;28;20053;-73
2022/05/23 01:45:13;;;;;;;3.83;1.60;;;13.70;99.90;;;;;;4971265;28;20046;-73
2022/05/23 01:47:39;;;;;;;4.43;1.70;;;13.70;99.90;;;;;;4969937;28;20066;-73
2022/05/23 01:50:05;;;;;;;4.88;1.67;;;13.70;99.90;;;;;;4970902;28;20477;-73
2022/05/23 01:52:31;;;;;;;5.57;2.00;;;13.70;99.90;;;;;;4974164;28;20130;-73
2022/05/23 01:54:57;;;;;;;4.32;2.22;;;13.70;99.90;;;;;;4973337;28;20126;-73
2022/05/23 01:57:22;;;;;;;4.05;1.90;;;13.80;99.90;;;;;;4971265;28;20040;-73
2022/05/23 02:02:32;;;;;;;5.07;1.65;;;13.80;99.90;;;;;;4968818;28;20054;-73
2022/05/23 02:04:58;;;;;;;3.97;1.73;;;13.80;99.90;;;;;;4973314;28;20045;-73
2022/05/23 02:07:24;;;;;;;7.40;2.13;;;13.80;99.90;;;;;;4968033;28;20054;-73
2022/05/23 02:09:49;;;;;;;3.58;1.88;;;13.70;99.90;;;;;;4968308;28;20046;-73
2022/05/23 02:12:18;;;;;;;4.50;1.95;;;13.80;99.90;;;;;;4970671;28;20039;-73
2022/05/23 02:14:46;;;;;;;3.30;1.90;;;13.70;99.90;;;;;;4971234;28;20134;-73
2022/05/23 02:17:12;;;;;;;4.40;1.88;;;13.70;99.90;;;;;;4971636;28;20053;-73
2022/05/23 02:19:38;;;;;;;4.75;2.00;;;13.80;99.90;;;;;;4974296;28;20045;-73
2022/05/23 02:22:05;;;;;;;6.57;1.90;;;13.70;99.90;;;;;;4970289;28;20378;-73
2022/05/23 02:24:30;;;;;;;4.78;2.00;;;13.80;99.90;;;;;;4968968;28;20062;-73
2022/05/23 02:26:56;;;;;;;4.35;1.77;;;13.80;99.90;;;;;;4972698;28;20050;-73
2022/05/23 02:29:22;;;;;;;4.68;1.83;;;13.70;99.90;;;;;;4972780;28;20053;-73
2022/05/23 02:31:50;;;;;;;5.80;1.88;;;13.80;99.90;;;;;;4955023;28;20041;-73
2022/05/23 02:34:18;;;;;;;5.07;1.80;;;13.80;99.90;;;;;;4973519;28;20046;-73
2022/05/23 02:36:45;;;;;;;5.57;1.73;;;13.80;99.90;;;;;;4968544;28;20401;-73
2022/05/23 02:39:11;;;;;;;4.80;1.60;;;13.80;99.90;;;;;;4972516;28;20130;-73
2022/05/23 02:41:37;;;;;;;6.47;1.83;;;13.80;99.90;;;;;;4970004;28;20081;-73
2022/05/23 02:44:03;;;;;;;5.75;1.85;;;13.70;99.90;;;;;;4954487;28;20058;-73
2022/05/23 02:46:29;;;;;;;4.60;1.80;;;13.70;99.90;;;;;;4970945;28;20053;-73
2022/05/23 02:48:55;;;;;;;4.70;1.80;;;13.70;99.90;;;;;;4969321;28;20138;-73
2022/05/23 02:51:21;;;;;;;3.25;1.67;;;13.80;99.90;;;;;;4970501;28;20042;-73
2022/05/23 02:53:47;;;;;;;3.15;1.67;;;13.80;99.90;;;;;;4968224;28;20047;-73
2022/05/23 02:56:12;;;;;;;5.97;2.00;;;13.80;99.90;;;;;;4971419;28;20042;-73
2022/05/23 02:58:38;;;;;;;5.57;1.95;;;13.80;99.90;;;;;;4970891;28;20113;-73
2022/05/23 03:01:04;;;;;;;6.38;2.10;;;13.80;99.90;;;;;;4971582;28;20069;-73
2022/05/23 03:03:32;;;;;;;3.85;1.80;;;13.80;99.90;;;;;;4951924;28;20043;-73
2022/05/23 03:05:58;;;;;;;3.88;1.80;;;13.80;99.90;;;;;;4967791;28;20086;-73
2022/05/23 03:08:25;;;;;;;3.70;1.77;;;13.80;99.90;;;;;;4970269;28;20086;-73
2022/05/23 03:10:54;;;;;;;4.15;1.90;;;13.80;99.90;;;;;;4972984;28;20042;-73
2022/05/23 03:13:20;;;;;;;3.38;1.67;;;13.80;99.90;;;;;;4966582;28;20041;-73
2022/05/23 03:15:46;;;;;;;5.00;1.90;;;13.80;99.90;;;;;;4968781;28;20043;-73
2022/05/23 03:18:12;;;;;;;3.38;1.80;;;13.80;99.90;;;;;;4968768;28;20043;-73
2022/05/23 03:20:38;;;;;;;3.67;1.90;;;13.80;99.90;;;;;;4968915;28;20074;-73
2022/05/23 03:28:34;;;;;;;7.40;1.95;;;13.80;99.90;;;;;;4966421;28;20128;-73
2022/05/23 03:31:00;;;;;;;6.40;2.45;;;13.80;99.90;;;;;;4972637;28;20039;-73
2022/05/23 03:33:27;;;;;;;6.97;2.28;;;13.80;99.90;;;;;;4968545;28;20046;-73
2022/05/23 03:35:52;;;;;;;3.58;2.00;;;13.80;99.90;;;;;;4971552;28;20041;-73
2022/05/23 03:38:18;;;;;;;4.93;1.98;;;13.80;99.90;;;;;;4953298;28;20050;-73
2022/05/23 03:40:44;;;;;;;7.18;2.25;;;13.80;99.90;;;;;;4970844;28;20027;-73
2022/05/23 03:43:11;;;;;;;4.22;2.08;;;13.80;99.90;;;;;;4966737;28;20130;-73
2022/05/23 03:45:37;;;;;;;6.68;1.95;;;13.80;99.90;;;;;;4955432;28;20090;-73
2022/05/23 03:48:03;;;;;;;4.97;2.22;;;13.80;99.90;;;;;;4968586;28;20047;-73
2022/05/23 03:50:31;;;;;;;5.07;2.13;;;13.80;99.90;;;;;;4966434;28;20047;-73
2022/05/23 03:52:56;;;;;;;9.13;2.20;;;13.80;99.90;;;;;;4969042;28;20034;-73
2022/05/23 03:55:23;;;;;;;5.53;1.90;;;13.90;99.90;;;;;;4970223;28;20043;-73
2022/05/23 03:57:49;;;;;;;5.63;2.05;;;13.90;99.90;;;;;;4965466;28;20065;-73
2022/05/23 04:00:15;;;;;;;6.32;2.20;;;13.90;99.90;;;;;;4966417;28;20498;-73
2022/05/23 04:02:42;;;;;;;5.20;2.00;;;13.90;99.90;;;;;;4968465;28;20050;-73
2022/05/23 04:05:10;;;;;;;5.75;1.80;;;13.90;99.90;;;;;;4967577;28;20050;-73
2022/05/23 04:07:38;;;;;;;7.38;2.22;;;13.90;99.90;;;;;;4968222;28;20039;-73
2022/05/23 04:10:14;;;;;;;6.13;2.10;;;13.80;99.90;;;;;;4966435;28;20199;-73
2022/05/23 04:12:40;;;;;;;3.65;1.98;;;13.80;99.90;;;;;;4967857;28;20026;-73
2022/05/23 04:15:07;;;;;;;6.00;2.33;;;13.80;99.90;;;;;;4969980;28;20093;-73
2022/05/23 04:17:33;;;;;;;6.85;2.50;;;13.70;99.90;;;;;;4970437;28;20493;-73
2022/05/23 04:19:59;;;;;;;5.03;2.40;;;13.70;99.90;;;;;;4950013;28;20094;-73
2022/05/23 04:22:25;;;;;;;5.25;2.20;;;13.70;99.90;;;;;;4985115;28;20051;-73
2022/05/23 04:24:50;;;;;;;5.72;2.50;;;13.60;99.90;;;;;;4968005;28;20050;-73
2022/05/23 04:27:17;;;;;;;4.55;2.17;;;13.60;99.90;;;;;;4970197;28;20050;-73
2022/05/23 04:29:43;;;;;;;7.38;2.15;;;13.60;99.90;;;;;;4966288;28;20039;-73
2022/05/23 04:35:13;;;;;;;6.22;2.72;;;13.60;99.90;;;;;;4941501;28;20046;-73
2022/05/23 04:37:44;;;;;;;7.28;2.60;;;13.60;99.90;;;;;;4954523;28;20042;-73
2022/05/23 04:40:12;;;;;;;7.05;2.40;;;13.60;99.90;;;;;;4967617;28;20045;-73
2022/05/23 04:42:38;;;;;;;7.40;2.72;;;13.60;99.90;;;;;;4970398;28;20049;-73
2022/05/23 04:45:04;;;;;;;5.05;2.63;;;13.60;99.90;;;;;;4965985;28;20047;-73
2022/05/23 04:50:14;;;;;;;8.10;2.92;;;13.70;99.90;;;;;;4965445;28;20050;-73
2022/05/23 04:52:40;;;;;;;4.38;2.78;;;13.70;99.90;;;;;;4967467;28;20043;-73
2022/05/23 04:55:08;;;;;;;4.78;2.60;;;13.70;99.90;;;;;;4968505;28;20043;-73
2022/05/23 04:57:34;;;;;;;7.47;2.83;;;13.80;99.90;;;;;;4981505;28;20067;-73
2022/05/23 05:00:01;;;;;;;6.05;2.83;;;13.80;99.90;;;;;;4968637;28;20039;-73
2022/05/23 05:02:28;;;;;;;4.80;2.80;;;13.80;99.90;;;;;;4966671;28;20042;-73
2022/05/23 05:04:53;;;;;;;6.53;2.95;;;13.90;99.90;;;;;;4967124;28;20107;-73
2022/05/23 05:07:19;;;;;;;11.50;3.03;;;13.90;99.90;;;;;;4967406;28;20076;-73
2022/05/23 05:09:45;;;;;;;6.43;2.70;;;13.90;99.90;;;;;;4950667;28;20043;-73
2022/05/23 05:12:10;;;;;;;6.22;2.83;;;13.90;99.90;;;;;;4964207;28;20047;-73
2022/05/23 05:14:36;;;;;;;8.88;2.90;;;13.90;99.90;;;;;;4961506;28;20088;-73
2022/05/23 05:17:03;;;;;;;6.47;2.80;;;13.90;99.90;;;;;;4970427;28;20405;-73
2022/05/23 05:19:28;;;;;;;6.22;3.00;;;13.90;99.90;;;;;;4961275;28;20046;-73
2022/05/23 05:21:54;;;;;;;4.75;2.80;;;13.90;99.90;;;;;;4967758;28;20043;-73
2022/05/23 05:24:20;;;;;;;6.13;3.00;;;14.00;99.90;;;;;;4965709;28;20047;-73
2022/05/23 05:26:46;;;;;;;5.28;2.60;;;14.00;99.90;;;;;;4961532;28;20105;-73
2022/05/23 05:29:11;;;;;;;7.93;3.10;;;14.10;99.90;;;;;;4982504;28;20046;-73
2022/05/23 05:31:59;;;;;;;4.75;3.00;;;14.10;99.90;;;;;;4968015;28;20045;-73
2022/05/23 05:34:37;;;;;;;6.25;3.30;;;14.20;99.90;;;;;;4979919;28;20039;-72
2022/05/23 05:37:09;;;;;;;8.30;3.70;;;14.30;99.90;;;;;;4967326;28;20030;-73
2022/05/23 05:39:37;;;;;;;7.72;3.10;;;14.30;99.90;;;;;;4967232;28;20552;-73
2022/05/23 05:42:18;;;;;;;5.40;3.15;;;14.40;99.90;;;;;;4949122;28;20043;-73
2022/05/23 05:44:49;;;;;;;7.10;3.30;;;14.50;99.90;;;;;;4963323;28;20137;-73
2022/05/23 05:47:19;;;;;;;7.57;3.30;;;14.60;99.90;;;;;;4965586;28;20038;-73
2022/05/23 05:57:32;;;;;;;12.40;3.45;;;14.90;99.90;;;;;;4968695;28;20038;-73
2022/05/23 06:02:30;;;;;;;;;;;15.00;99.90;;;;;;4968373;28;20053;-73
2022/05/23 06:04:55;;;;;;;8.10;3.47;;;15.00;99.90;;;;;;4963307;28;19947;-73
2022/05/23 06:12:54;;;;;;;8.30;3.95;;;15.30;99.90;;;;;;4978044;28;20595;-73
2022/05/23 06:15:20;;;;;;;7.47;4.15;;;15.50;99.90;;;;;;4967973;28;20085;-73
2022/05/23 06:17:46;;;;;;;6.35;3.75;;;15.60;99.90;;;;;;4957291;28;20028;-73
2022/05/23 06:20:14;;;;;;;7.45;3.90;;;15.70;99.90;;;;;;4965252;28;20089;-73
2022/05/23 06:22:39;;;;;;;8.52;4.00;;;15.80;99.90;;;;;;4965792;28;20046;-73
2022/05/23 06:25:06;;;;;;;5.78;3.47;;;15.90;99.90;;;;;;4951927;28;20412;-74
2022/05/23 06:27:32;;;;;;;7.60;3.97;;;16.00;99.90;;;;;;4970124;28;20545;-74
2022/05/23 06:29:58;;;;;;;7.88;4.10;;;16.10;99.90;;;;;;4964207;28;20122;-73
2022/05/23 06:32:24;;;;;;;7.65;3.85;;;16.20;99.90;;;;;;4951317;28;20077;-74
2022/05/23 06:34:50;;;;;;;9.50;4.05;;;16.30;99.90;;;;;;4965485;28;20038;-75
2022/05/23 06:37:16;;;;;;;6.40;3.90;;;16.40;99.90;;;;;;4968925;28;20035;-75
2022/05/23 06:39:42;;;;;;;7.40;3.75;;;16.50;99.90;;;;;;4973043;28;20038;-75
2022/05/23 06:42:08;;;;;;;5.57;3.33;;;16.70;99.90;;;;;;4974152;28;20050;-75
2022/05/23 06:44:34;;;;;;;7.70;3.90;;;16.80;99.90;;;;;;4963801;28;20061;-75
2022/05/23 06:47:00;;;;;;;8.20;3.97;;;16.90;99.90;;;;;;4963098;28;20039;-75
2022/05/23 06:49:26;;;;;;;6.07;3.85;;;17.00;99.90;;;;;;4965998;28;20047;-75
2022/05/23 06:51:52;;;;;;;8.07;4.32;;;17.20;99.90;;;;;;4966221;28;20039;-75
2022/05/23 06:54:19;;;;;;;5.85;4.18;;;17.40;99.90;;;;;;4957743;28;20045;-75
2022/05/23 06:56:46;;;;;;;8.77;3.70;;;17.50;99.90;;;;;;4974008;28;20473;-75
2022/05/23 06:59:12;;;;;;;7.63;4.25;;;17.60;99.90;;;;;;4972333;28;20508;-75
2022/05/23 07:01:38;;;;;;;10.00;4.15;;;17.70;99.90;;;;;;4959326;28;20039;-75
2022/05/23 07:04:04;;;;;;;8.55;4.10;;;17.90;99.90;;;;;;4956801;28;20050;-75
2022/05/23 07:12:19;;;;;;;11.50;4.32;;;18.20;99.90;;;;;;4970059;28;20051;-75
2022/05/23 07:12:20;;;;;;;9.82;4.40;;;18.30;99.90;;;;;;4974892;28;20493;-75
2022/05/23 07:14:47;;;;;;;8.52;3.95;;;18.50;99.90;;;;;;4962582;28;20481;-75
2022/05/23 07:17:13;;;;;;;5.72;4.03;;;18.70;99.90;;;;;;4959956;28;20039;-75
2022/05/23 07:19:39;;;;;;;5.88;3.50;;;18.80;99.90;;;;;;4962408;28;20104;-75
2022/05/23 07:22:05;;;;;;;7.80;3.60;;;18.90;99.90;;;;;;4969231;28;20417;-75
2022/05/23 07:24:31;;;;;;;6.22;3.90;;;19.00;99.90;;;;;;4963930;28;20054;-75
2022/05/23 07:27:01;;;;;;;7.47;4.20;;;19.00;99.90;;;;;;4967089;28;20408;-75
2022/05/23 07:29:28;;;;;;;10.20;4.68;;;19.00;99.90;;;;;;4965468;28;20573;-75
2022/05/23 07:31:54;;;;;;;9.55;3.60;;;19.10;99.90;;;;;;4970958;28;20039;-75
2022/05/23 07:34:20;;;;;;;6.32;3.42;;;19.20;99.90;;;;;;4966352;28;20466;-75
2022/05/23 07:36:48;;;;;;;6.93;3.83;;;19.30;99.90;;;;;;4971671;28;20122;-75
2022/05/23 07:39:14;;;;;;;5.75;3.75;;;19.40;99.90;;;;;;4965966;28;20038;-75
2022/05/23 07:41:42;;;;;;;7.43;3.90;;;19.40;99.90;;;;;;4969471;28;20034;-75
2022/05/23 07:44:09;;;;;;;8.07;3.90;;;19.50;99.90;;;;;;4972786;28;20485;-75
2022/05/23 07:46:35;;;;;;;10.68;3.90;;;19.60;99.90;;;;;;4972491;28;20059;-75
2022/05/23 07:49:01;;;;;;;5.80;3.30;;;19.80;99.90;;;;;;4949590;28;20038;-75
2022/05/23 07:51:30;;;;;;;9.38;4.03;;;19.90;99.90;;;;;;4959488;28;20186;-75
2022/05/23 08:02:17;;;;;;;9.50;3.47;;;20.50;99.90;;;;;;4961865;28;20043;-74
2022/05/23 08:04:42;;;;;;;7.07;3.67;;;20.60;99.90;;;;;;4956025;28;20039;-74
2022/05/23 08:07:09;;;;;;;8.02;3.92;;;20.70;99.90;;;;;;4972511;28;20531;-74
2022/05/23 08:09:36;;;;;;;6.57;3.58;;;20.80;99.90;;;;;;4969262;28;20219;-74
2022/05/23 08:12:04;;;;;;;5.65;3.40;;;20.90;99.90;;;;;;4964591;28;20066;-74
2022/05/23 08:14:30;;;;;;;6.40;3.50;;;21.10;99.90;;;;;;4961110;28;20127;-74
2022/05/23 08:16:56;;;;;;;6.70;3.50;;;21.20;99.90;;;;;;4969739;28;20042;-74
2022/05/23 08:19:23;;;;;;;6.38;3.63;;;21.30;99.90;;;;;;4970218;28;20242;-74
2022/05/23 08:21:55;;;;;;;14.10;4.32;;;21.40;99.90;;;;;;4970310;28;20548;-73
2022/05/23 08:24:20;;;;;;;;;;;21.40;99.90;;;;;;4962894;28;20405;-74
2022/05/23 08:26:46;;;;;;;7.78;3.72;;;21.60;99.90;;;;;;4975615;28;19918;-74
2022/05/23 08:29:12;;;;;;;8.25;3.28;;;21.70;99.90;;;;;;4963850;28;20515;-74
2022/05/23 08:31:39;;;;;;;8.07;3.80;;;21.80;99.90;;;;;;4971535;28;20128;-74
2022/05/23 08:34:06;;;;;;;7.82;4.35;;;22.00;99.90;;;;;;4971584;28;20070;-74
2022/05/23 08:36:32;;;;;;;9.13;3.63;;;22.00;99.90;;;;;;4972883;28;20485;-74
2022/05/23 08:38:58;;;;;;;7.80;3.33;;;22.10;99.90;;;;;;4967835;28;20134;-74
2022/05/23 08:41:30;;;;;;;6.47;3.50;;;22.30;99.90;;;;;;4953894;28;20121;-74
2022/05/23 08:44:16;;;;;;;8.38;3.70;;;22.50;99.90;;;;;;4971497;28;20117;-74
2022/05/23 08:46:53;;;;;;;6.53;3.60;;;22.60;99.90;;;;;;4970047;28;20070;-74
2022/05/23 08:49:24;;;;;;;8.30;3.63;;;22.80;99.90;;;;;;4969754;28;20038;-74
2022/05/23 08:52:08;;;;;;;10.67;3.73;;;22.90;99.90;;;;;;4966498;28;20049;-74
2022/05/23 08:54:48;;;;;;;11.48;4.00;;;23.10;99.90;;;;;;4971178;28;20286;-74
2022/05/23 08:57:35;;;;;;;10.45;3.90;;;23.20;99.90;;;;;;4971133;28;20126;-73
2022/05/23 09:00:10;;;;;;;8.73;2.92;;;23.40;99.90;;;;;;4965883;28;20043;-73
2022/05/23 09:02:38;;;;;;;8.50;2.88;;;23.50;99.20;;;;;;4962016;28;20039;-73
2022/05/23 09:05:11;;;;;;;9.52;3.08;;;23.70;99.30;;;;;;4961286;28;20055;-73
2022/05/23 09:07:48;;;;;;;5.50;2.95;;;23.80;96.30;;;;;;4970439;28;20035;-73
2022/05/23 09:10:38;;;;;;;12.15;3.28;;;23.80;96.10;;;;;;4973046;28;20050;-73
2022/05/23 09:13:07;;;;;;;8.63;2.95;;;24.00;99.30;;;;;;4980832;28;20045;-73
2022/05/23 09:15:33;;;;;;;6.75;2.45;;;24.20;98.30;;;;;;4964111;28;20043;-74
2022/05/23 09:18:05;;;;;;;7.95;3.10;;;24.40;95.50;;;;;;4968225;28;20046;-74
2022/05/23 09:20:45;;;;;;;4.28;2.55;;;24.50;94.80;;;;;;4962006;28;20094;-74
2022/05/23 09:23:22;;;;;;;6.63;2.80;;;24.70;95.70;;;;;;4976736;28;20109;-74
2022/05/23 09:25:51;;;;;;;6.00;2.58;;;24.70;95.80;;;;;;4959945;28;20057;-73
2022/05/23 09:28:28;;;;;;;5.47;2.40;;;24.60;89.30;;;;;;4970921;28;20039;-73
2022/05/23 09:31:16;;;;;;;3.78;2.35;;;24.50;91.60;;;;;;4967678;28;20051;-73
2022/05/23 09:33:45;;;;;;;4.18;2.42;;;24.40;91.20;;;;;;4969550;28;20106;-72
2022/05/23 09:36:17;;;;;;;6.82;2.25;;;24.30;94.00;;;;;;4951578;28;20058;-73
2022/05/23 09:38:56;;;;;;;4.88;2.20;;;24.30;94.90;;;;;;4952427;28;20078;-73
2022/05/23 09:50:10;;;;;;;8.82;2.20;;;24.40;92.00;;;;;;4964136;28;20043;-74
2022/05/23 09:52:42;;;;;;;4.18;2.10;;;24.50;88.00;;;;;;4967848;28;20098;-74
2022/05/23 09:55:16;;;;;;;7.05;1.98;;;24.30;86.50;;;;;;4970602;28;20039;-74
2022/05/23 09:57:53;;;;;;;3.70;1.90;;;24.30;90.40;;;;;;4968626;28;20102;-74
2022/05/23 10:00:21;;;;;;;4.13;2.28;;;24.30;87.70;;;;;;4950467;28;20062;-75
2022/05/23 10:03:13;;;;;;;5.07;2.17;;;24.30;90.10;;;;;;4971035;28;20074;-74
2022/05/23 10:05:46;;;;;;;5.57;2.50;;;24.40;94.20;;;;;;4963299;28;20058;-74
2022/05/23 10:08:40;;;;;;;4.97;2.35;;;24.40;94.60;;;;;;4972162;28;20074;-74
2022/05/23 10:11:19;;;;;;;6.18;2.38;;;24.60;91.10;;;;;;4985588;28;20038;-74
2022/05/23 10:13:51;;;;;;;4.72;2.60;;;24.80;87.10;;;;;;4969535;28;20105;-74
2022/05/23 10:16:26;;;;;;;;;;;24.90;90.80;;;;;;4973045;28;20045;-75
2022/05/23 10:19:03;;;;;;;6.55;2.45;;;25.10;92.30;;;;;;4972378;28;19930;-74
2022/05/23 10:21:41;;;;;;;8.38;2.53;;;25.40;87.40;;;;;;4967075;28;20059;-74
2022/05/23 10:24:09;;;;;;;4.75;2.28;;;25.60;86.10;;;;;;4968261;28;20109;-74
2022/05/23 10:26:49;;;;;;;7.43;2.20;;;25.90;82.00;;;;;;4969543;28;20069;-74
2022/05/23 10:29:33;;;;;;;7.93;2.40;;;26.10;80.60;;;;;;4965639;28;20061;-74
2022/05/23 10:32:11;;;;;;;5.50;2.28;;;26.30;79.20;;;;;;4968912;28;20774;-74
2022/05/23 10:34:48;;;;;;;5.28;1.60;;;26.50;78.60;;;;;;4974103;28;20035;-75
2022/05/23 10:37:20;;;;;;;6.00;1.80;;;26.70;72.50;;;;;;4965496;28;20397;-74
2022/05/23 10:42:47;;;;;;;7.10;1.90;;;26.80;70.70;;;;;;4988349;28;20050;-74
2022/05/23 10:45:36;;;;;;;3.95;1.90;;;26.90;69.70;;;;;;4969017;28;20030;-74
2022/05/23 10:48:22;;;;;;;4.38;1.70;;;27.20;69.40;;;;;;4970713;28;20436;-74
2022/05/23 10:51:14;;;;;;;4.45;1.73;;;27.30;62.00;;;;;;4970351;28;20045;-74
2022/05/23 10:53:51;;;;;;;;;;;27.20;64.70;;;;;;4986689;28;20066;-74
2022/05/23 10:56:36;;;;;;;4.78;1.58;;;27.10;62.40;;;;;;4969391;28;20281;-74
2022/05/23 10:59:16;;;;;;;5.82;1.58;;;27.10;67.60;;;;;;4967081;28;20035;-74
2022/05/23 11:02:19;;;;;;;7.23;2.10;;;27.30;67.30;;;;;;4973602;28;20404;-75
2022/05/23 11:04:57;;;;;;;5.57;1.55;;;27.80;68.90;;;;;;4969791;28;20038;-75
2022/05/23 11:07:46;;;;;;;3.72;1.60;;;28.10;61.70;;;;;;4969713;28;20422;-75
2022/05/23 11:10:17;;;;;;;2.92;1.40;;;28.40;63.50;;;;;;4984790;28;20375;-74
2022/05/23 11:12:49;;;;;;;4.38;1.58;;;28.50;62.80;;;;;;4973656;28;20054;-75
2022/05/23 11:15:44;;;;;;;4.10;1.83;;;28.80;56.80;;;;;;4972148;28;20624;-76
2022/05/23 11:18:50;;;;;;;5.18;1.70;;;29.00;59.90;;;;;;4950452;28;20046;-73
2022/05/23 11:21:28;;;;;;;3.50;1.55;;;29.10;56.70;;;;;;4971775;28;20148;-74
2022/05/23 11:24:00;;;;;;;5.40;1.63;;;29.10;60.00;;;;;;4967337;28;20039;-73
2022/05/23 11:26:45;;;;;;;4.80;1.80;;;29.00;57.20;;;;;;4974232;28;20083;-74
2022/05/23 11:35:00;;;;;;;6.13;1.90;;;28.30;57.90;;;;;;4970453;28;20130;-75
2022/05/23 11:40:06;;;;;;;4.10;1.67;;;28.40;61.00;;;;;;4970522;28;20046;-75
2022/05/23 11:42:38;;;;;;;6.28;1.95;;;28.60;58.20;;;;;;4971909;28;20046;-74
2022/05/23 11:47:53;;;;;;;3.88;1.75;;;28.50;60.10;;;;;;4971719;28;20062;-75
2022/05/23 11:50:26;;;;;;;7.28;2.42;;;28.50;60.20;;;;;;4969315;28;20117;-74
2022/05/23 11:53:26;;;;;;;4.55;1.80;;;28.80;60.60;;;;;;4967879;28;20101;-74
2022/05/23 11:55:53;;;;;;;7.07;1.80;;;28.90;57.80;;;;;;4987444;28;20038;-74
2022/05/23 11:58:23;;;;;;;5.55;2.00;;;29.10;58.80;;;;;;4970645;28;20090;-74
2022/05/23 12:01:04;;;;;;;5.18;2.13;;;29.20;58.40;;;;;;4961575;28;20485;-74
2022/05/23 12:03:49;;;;;;;7.87;2.10;;;29.10;56.50;;;;;;4965600;28;20047;-75
2022/05/23 12:06:23;;;;;;;4.63;2.20;;;28.70;57.50;;;;;;4953690;28;20065;-73
2022/05/23 12:08:59;;;;;;;5.82;2.13;;;28.40;58.10;;;;;;4966802;28;20034;-75
2022/05/23 12:11:38;;;;;;;4.53;2.20;;;28.10;59.60;;;;;;4969052;28;20129;-75
2022/05/23 12:14:24;;;;;;;5.10;1.88;;;27.80;62.00;;;;;;4952889;28;20039;-75
2022/05/23 12:16:55;;;;;;;3.03;1.50;;;27.50;61.00;;;;;;4965996;28;20038;-75
2022/05/23 12:19:50;;;;;;;3.35;1.48;;;27.10;60.00;;;;;;4968996;28;20043;-72
2022/05/23 12:22:29;;;;;;;6.07;1.85;;;26.90;61.40;;;;;;4966597;28;20129;-74
2022/05/23 12:25:19;;;;;;;5.70;2.10;;;26.80;63.50;;;;;;4969946;28;20050;-73
2022/05/23 12:27:45;;;;;;;6.00;1.90;;;26.50;61.30;;;;;;4957182;28;20089;-73
2022/05/23 12:30:17;;;;;;;13.50;2.60;;;26.40;65.10;;;;;;4967417;28;20039;-73
2022/05/23 12:32:43;;;;;;;;;;;26.30;61.90;;;;;;4969266;28;20043;-73
2022/05/23 12:35:13;;;;;;;5.18;2.28;;;26.20;68.50;;;;;;4970519;28;19941;-73
2022/05/23 12:37:46;;;;;;;7.40;2.25;;;26.00;68.60;;;;;;4961289;28;20043;-73
2022/05/23 12:40:27;;;;;;;3.70;2.30;;;26.00;71.90;;;;;;4965733;28;20051;-72
2022/05/23 12:43:15;;;;;;;6.85;2.20;;;26.00;73.90;;;;;;4963432;28;20057;-72
2022/05/23 12:46:04;;;;;;;6.15;2.50;;;25.90;75.00;;;;;;4963941;28;20034;-72
2022/05/23 12:48:45;;;;;;;7.43;3.05;;;25.90;75.40;;;;;;4982636;28;20065;-72
2022/05/23 12:51:26;;;;;;;6.82;2.53;;;25.80;76.00;;;;;;4966670;28;20120;-73
2022/05/23 12:54:33;;;;;;;3.60;2.42;;;25.70;76.40;;;;;;4966342;28;20042;-72
2022/05/23 12:57:47;;;;;;;9.18;3.00;;;25.60;77.20;;;;;;4945612;28;20047;-73
2022/05/23 13:00:16;;;;;;;5.60;2.80;;;25.30;81.20;;;;;;4957591;28;20043;-73
2022/05/23 13:02:45;;;;;;;5.57;3.00;;;25.00;82.20;;;;;;4963157;28;20114;-73
2022/05/23 13:05:41;;;;;;;4.28;2.65;;;24.90;83.00;;;;;;4962392;28;20043;-73
2022/05/23 13:08:19;;;;;;;5.35;2.92;;;24.90;89.20;;;;;;4887919;28;20044;-73
2022/05/23 13:10:50;;;;;;;5.47;3.10;;;24.80;89.00;;;;;;4965912;28;20154;-73
2022/05/23 13:13:30;;;;;;;7.15;2.90;;;24.80;91.90;;;;;;4967679;28;20086;-73
2022/05/23 13:15:56;;;;;;;6.85;3.13;;;24.80;93.20;;;;;;4964941;28;20039;-73
2022/05/23 13:23:54;;;;;;;9.23;3.35;;;24.80;95.50;;;;;;4969940;28;20039;-73
2022/05/23 13:26:21;;;;;;;4.20;3.08;;;24.80;98.40;;;;;;4968790;28;20055;-74
2022/05/23 13:28:53;;;;;;;8.35;3.10;;;24.80;94.50;;;;;;4949741;28;20118;-72
2022/05/23 13:31:35;;;;;;;;;;;24.80;95.60;;;;;;4983430;28;20108;-73
2022/05/23 13:34:02;;;;;;;5.22;3.10;;;24.70;97.50;;;;;;4952470;28;19972;-74
2022/05/23 13:36:41;;;;;;;6.57;3.50;;;24.70;96.80;;;;;;4969798;28;20043;-74
2022/05/23 13:39:14;;;;;;;5.72;3.25;;;24.70;96.40;;;;;;4965282;28;20061;-74
2022/05/23 13:41:40;;;;;;;7.88;3.65;;;24.60;98.50;;;;;;4969564;28;20027;-74
2022/05/23 13:44:06;;;;;;;7.63;3.58;;;24.60;97.10;;;;;;4970034;28;20089;-74
2022/05/23 13:46:42;;;;;;;8.13;3.70;;;24.60;97.00;;;;;;4967278;28;20042;-73
2022/05/23 13:49:16;;;;;;;6.18;3.60;;;24.70;97.80;;;;;;4983326;28;20042;-74
2022/05/23 13:51:50;;;;;;;6.07;3.10;;;24.80;99.20;;;;;;4968185;28;20035;-74
2022/05/23 13:54:24;;;;;;;5.43;3.10;;;24.90;98.30;;;;;;4949269;28;20509;-73
2022/05/23 13:56:58;;;;;;;8.25;3.25;;;25.00;96.80;;;;;;4968897;28;20058;-74
2022/05/23 13:59:28;;;;;;;5.68;3.55;;;25.10;96.60;;;;;;4970088;28;20065;-73
2022/05/23 14:02:03;;;;;;;6.47;3.40;;;25.20;96.40;;;;;;4963489;28;20045;-72
2022/05/23 14:04:36;;;;;;;9.68;2.92;;;25.30;95.00;;;;;;4950569;28;20093;-73
2022/05/23 14:07:08;;;;;;;6.38;3.00;;;25.50;93.30;;;;;;4949219;28;20039;-73
2022/05/23 14:09:34;;;;;;;7.95;3.10;;;25.60;92.40;;;;;;4970059;28;20069;-72
2022/05/23 14:12:05;;;;;;;5.28;3.10;;;25.60;93.40;;;;;;4969461;28;20039;-71
2022/05/23 14:14:40;;;;;;;7.70;3.50;;;25.60;94.20;;;;;;4968742;28;20050;-73
2022/05/23 14:17:16;;;;;;;7.70;3.33;;;25.60;96.50;;;;;;4967375;28;20042;-73
2022/05/23 14:19:53;;;;;;;5.50;3.53;;;25.40;98.80;;;;;;4968571;28;20031;-74